Time;durP1;ratioP1;P1;durP2;ratioP2;P2;SDS_P1;SDS_P2;PMS_P1;PMS_P2;Temp;Humidity;BMP_temperature;BMP_pressure;BME280_temperature;BME280_humidity;BME280_pressure;Samples;Min_cycle;Max_cycle;Signal;HPM_P1;HPM_P2
2022/10/06 00:00:00;;;;;;;2.95;2.20;;;;;;;13.01;78.15;101038.11;1706735;82;21042;-70
2022/10/06 00:02:27;;;;;;;1.70;1.52;;;;;;;12.99;78.28;101037.47;1698469;84;21479;-70
2022/10/06 00:04:53;;;;;;;3.30;1.70;;;;;;;12.98;78.38;101039.32;1706914;84;21099;-71
2022/10/06 00:07:19;;;;;;;;;;;;;;;12.93;78.58;101039.05;1709793;84;21060;-69
2022/10/06 00:09:45;;;;;;;2.55;2.35;;;;;;;12.92;78.70;101036.55;1708508;83;20102;-70
2022/10/06 00:12:12;;;;;;;3.08;1.82;;;;;;;12.87;79.07;101034.97;1705676;83;21065;-72
2022/10/06 00:14:40;;;;;;;3.83;1.85;;;;;;;12.86;79.18;101038.13;1682841;83;21233;-73
2022/10/06 00:17:06;;;;;;;6.08;2.55;;;;;;;12.85;79.33;101031.13;1684673;83;21795;-69
2022/10/06 00:19:33;;;;;;;5.85;2.37;;;;;;;12.81;79.44;101032.01;1660178;85;21029;-71
2022/10/06 00:21:59;;;;;;;4.35;2.22;;;;;;;12.80;79.67;101033.01;1649323;83;21021;-72
2022/10/06 00:24:26;;;;;;;2.25;1.82;;;;;;;12.80;79.89;101034.86;1648549;82;21049;-70
2022/10/06 00:26:52;;;;;;;4.65;2.08;;;;;;;12.75;80.00;101031.42;1631167;87;21126;-70
2022/10/06 00:29:18;;;;;;;;;;;;;;;12.69;80.18;101030.80;1619157;87;21068;-70
2022/10/06 00:31:45;;;;;;;3.33;1.80;;;;;;;12.71;80.27;101030.63;1585739;89;20175;-71
2022/10/06 00:34:11;;;;;;;2.02;1.82;;;;;;;12.66;80.46;101026.66;1617166;87;21085;-69
2022/10/06 00:36:38;;;;;;;4.08;2.40;;;;;;;12.66;80.39;101027.18;1634321;85;21020;-70
2022/10/06 00:39:04;;;;;;;2.77;1.95;;;;;;;12.65;80.31;101024.98;1650860;86;21124;-70
2022/10/06 00:41:31;;;;;;;2.42;1.95;;;;;;;12.66;80.32;101033.35;1644291;86;20997;-69
2022/10/06 00:43:58;;;;;;;3.30;1.90;;;;;;;12.68;80.18;101033.17;1644123;86;21191;-69
2022/10/06 00:46:44;;;;;;;5.58;2.10;;;;;;;12.67;80.06;101032.84;1642360;86;21037;-70
2022/10/06 00:49:30;;;;;;;2.93;1.50;;;;;;;12.67;79.96;101028.83;1644143;86;21089;-69
2022/10/06 00:52:02;;;;;;;2.75;1.65;;;;;;;12.68;79.91;101026.48;1653283;86;21078;-70
2022/10/06 00:54:31;;;;;;;3.70;1.85;;;;;;;12.69;79.90;101027.30;1643261;86;21018;-70
2022/10/06 00:56:58;;;;;;;8.80;2.52;;;;;;;12.68;79.94;101030.50;1643356;86;21025;-71
2022/10/06 00:59:25;;;;;;;2.08;1.90;;;;;;;12.68;79.96;101023.81;1643581;86;21080;-70
2022/10/06 01:02:21;;;;;;;;;;;;;;;12.68;80.01;101021.62;1646086;86;21009;-70
2022/10/06 01:04:52;;;;;;;8.05;2.10;;;;;;;12.66;80.04;101022.66;1644198;86;20112;-73
2022/10/06 01:07:21;;;;;;;5.08;1.85;;;;;;;12.60;80.40;101018.05;1642896;86;21518;-72
2022/10/06 01:09:49;;;;;;;3.62;1.67;;;;;;;12.58;80.61;101017.41;1624899;87;21087;-71
2022/10/06 01:12:16;;;;;;;1.70;1.60;;;;;;;12.58;80.73;101014.73;1637639;86;21119;-70
2022/10/06 01:14:42;;;;;;;8.68;2.87;;;;;;;12.57;80.74;101015.73;1619818;88;21112;-69
2022/10/06 01:17:14;;;;;;;4.30;2.05;;;;;;;12.55;80.71;101008.41;1611888;88;21057;-69
2022/10/06 01:19:58;;;;;;;9.23;2.70;;;;;;;12.53;80.88;101009.10;1612405;87;21122;-69
2022/10/06 01:22:57;;;;;;;2.62;2.35;;;;;;;12.49;81.04;101009.16;1635886;86;21108;-69
2022/10/06 01:25:23;;;;;;;3.98;2.83;;;;;;;12.43;81.31;101012.54;1595396;88;21022;-71
2022/10/06 01:27:53;;;;;;;3.00;2.12;;;;;;;12.37;81.66;101003.93;1609448;88;21029;-69
2022/10/06 01:30:45;;;;;;;5.22;2.42;;;;;;;12.34;81.75;101010.97;1583871;89;21518;-71
2022/10/06 01:33:12;;;;;;;2.30;2.00;;;;;;;12.30;81.92;101007.00;1608822;88;21104;-70
2022/10/06 01:35:40;;;;;;;7.47;2.92;;;;;;;12.22;82.27;101006.10;1608668;88;21050;-69
2022/10/06 01:38:06;;;;;;;13.10;3.15;;;;;;;12.19;82.51;101009.64;1650214;86;21494;-71
2022/10/06 01:40:34;;;;;;;5.30;3.77;;;;;;;12.14;82.66;101003.49;1619130;85;21086;-71
2022/10/06 01:43:01;;;;;;;10.68;3.37;;;;;;;12.08;82.86;101007.72;1619059;87;21517;-71
2022/10/06 01:45:27;;;;;;;2.65;1.80;;;;;;;12.03;83.02;101001.27;1598194;87;21604;-70
2022/10/06 01:47:54;;;;;;;5.00;1.98;;;;;;;11.97;83.36;101006.83;1598820;88;21145;-72
2022/10/06 01:50:21;;;;;;;3.15;2.25;;;;;;;11.95;83.63;101010.19;1633235;87;21089;-72
2022/10/06 01:52:47;;;;;;;4.08;3.05;;;;;;;11.91;83.77;101014.23;1628439;86;21045;-72
2022/10/06 01:55:14;;;;;;;3.45;3.15;;;;;;;11.85;84.07;101002.91;1632362;87;21530;-73
2022/10/06 01:57:42;;;;;;;4.25;2.37;;;;;;;11.81;84.28;101005.59;1605275;88;21143;-70
2022/10/06 02:00:11;;;;;;;10.20;3.05;;;;;;;11.76;84.44;101011.48;1615065;87;21092;-71
2022/10/06 02:02:42;;;;;;;12.20;3.52;;;;;;;11.74;84.64;101012.17;1623821;87;21473;-71
2022/10/06 02:05:09;;;;;;;3.83;2.92;;;;;;;11.71;84.75;101011.70;1632251;87;21085;-72
2022/10/06 02:07:37;;;;;;;5.65;2.25;;;;;;;11.67;84.86;101006.70;1632520;87;21124;-70
2022/10/06 02:10:06;;;;;;;4.53;3.12;;;;;;;11.64;85.05;101004.41;1632715;85;22279;-71
2022/10/06 02:12:34;;;;;;;2.70;2.50;;;;;;;11.57;85.25;101005.31;1632903;86;21021;-70
2022/10/06 02:15:01;;;;;;;3.25;2.90;;;;;;;11.52;85.60;101003.16;1633746;87;21493;-75
2022/10/06 02:17:29;;;;;;;2.47;2.27;;;;;;;11.48;85.83;101002.68;1605445;88;21010;-72
2022/10/06 02:19:55;;;;;;;;;;;;;;;11.44;86.03;100998.71;1609142;87;21605;-72
2022/10/06 02:22:21;;;;;;;3.95;2.50;;;;;;;11.40;86.23;101004.08;1613148;86;20142;-70
2022/10/06 02:24:48;;;;;;;;;;;;;;;11.28;86.67;101010.34;1634757;87;21121;-71
2022/10/06 02:27:14;;;;;;;5.60;2.87;;;;;;;11.25;86.94;101008.52;1632983;87;20147;-70
2022/10/06 02:29:40;;;;;;;5.00;2.87;;;;;;;11.18;87.35;101012.90;1634157;87;21188;-69
2022/10/06 02:32:07;;;;;;;3.20;2.30;;;;;;;11.17;87.48;101013.89;1632454;87;21129;-71
2022/10/06 02:34:33;;;;;;;2.83;2.35;;;;;;;11.14;87.62;101010.26;1606887;89;21566;-72
2022/10/06 02:37:00;;;;;;;6.60;3.30;;;;;;;11.12;87.89;101009.61;1605786;88;21707;-69
2022/10/06 02:39:28;;;;;;;6.03;3.55;;;;;;;11.10;88.14;101015.94;1633573;87;21489;-71
2022/10/06 02:41:54;;;;;;;4.45;3.17;;;;;;;11.13;88.37;101012.59;1633017;87;21028;-71
2022/10/06 02:44:22;;;;;;;3.33;3.02;;;;;;;11.12;88.23;101017.61;1574678;88;21155;-73
2022/10/06 02:46:48;;;;;;;3.15;2.52;;;;;;;11.10;88.28;101015.94;1634040;87;21588;-71
2022/10/06 02:49:16;;;;;;;4.70;3.40;;;;;;;11.07;88.38;101014.94;1633899;87;21520;-71
2022/10/06 02:51:43;;;;;;;2.75;2.50;;;;;;;11.04;88.50;101018.48;1632874;87;21096;-71
2022/10/06 02:54:09;;;;;;;5.37;3.10;;;;;;;11.01;88.79;101012.98;1611784;87;21111;-71
2022/10/06 02:56:36;;;;;;;6.22;3.60;;;;;;;11.00;88.91;101015.81;1629520;86;21001;-71
2022/10/06 02:59:04;;;;;;;6.97;3.90;;;;;;;10.97;88.94;101013.00;1631212;87;21028;-70
2022/10/06 03:01:32;;;;;;;4.57;3.10;;;;;;;10.96;89.17;101019.84;1632648;87;21077;-70
2022/10/06 03:04:00;;;;;;;4.53;3.47;;;;;;;10.94;89.24;101025.86;1603166;88;21053;-71
2022/10/06 03:06:29;;;;;;;3.35;3.02;;;;;;;10.91;89.35;101019.05;1610949;87;21025;-69
2022/10/06 03:09:04;;;;;;;11.53;3.70;;;;;;;10.89;89.40;101015.21;1606987;88;20988;-70
2022/10/06 03:11:34;;;;;;;4.37;3.70;;;;;;;10.85;89.57;101015.71;1609639;87;21117;-71
2022/10/06 03:14:03;;;;;;;3.95;3.33;;;;;;;10.83;89.76;101017.25;1632872;86;21650;-71
2022/10/06 03:16:36;;;;;;;4.67;3.27;;;;;;;10.83;89.93;101013.73;1633731;87;21028;-71
2022/10/06 03:19:05;;;;;;;4.90;3.17;;;;;;;10.80;89.85;101011.42;1632499;87;21037;-75
2022/10/06 03:21:37;;;;;;;8.60;3.70;;;;;;;10.78;90.08;101013.44;1633373;86;20998;-70
2022/10/06 03:24:04;;;;;;;3.52;3.22;;;;;;;10.76;90.16;101010.94;1633611;86;20971;-71
2022/10/06 03:26:35;;;;;;;7.62;3.08;;;;;;;10.74;90.51;101009.42;1606720;88;21034;-75
2022/10/06 03:29:04;;;;;;;5.30;4.10;;;;;;;10.71;90.76;101004.77;1605923;88;21462;-71
2022/10/06 03:31:34;;;;;;;7.80;4.47;;;;;;;10.71;90.84;101001.28;1606394;88;21013;-71
2022/10/06 03:34:02;;;;;;;6.53;4.00;;;;;;;10.69;90.91;100996.63;1606499;87;21589;-71
2022/10/06 03:36:32;;;;;;;6.13;3.83;;;;;;;10.68;91.15;101003.80;1606410;88;21073;-71
2022/10/06 03:39:02;;;;;;;7.00;3.60;;;;;;;10.68;91.23;101009.62;1606457;88;21102;-73
2022/10/06 03:41:32;;;;;;;8.13;4.00;;;;;;;10.67;91.44;101006.64;1616675;86;21140;-71
2022/10/06 03:44:01;;;;;;;6.77;4.33;;;;;;;10.69;91.52;101008.62;1620324;88;21022;-75
2022/10/06 03:46:33;;;;;;;3.97;3.43;;;;;;;10.34;91.51;100957.45;1632765;87;21003;-70
2022/10/06 03:49:00;;;;;;;4.90;3.92;;;;;;;10.68;91.61;101003.80;1604423;88;21141;-70
2022/10/06 03:51:31;;;;;;;4.30;3.30;;;;;;;10.68;91.54;101010.95;1622948;88;21036;-71
2022/10/06 03:53:59;;;;;;;8.53;4.47;;;;;;;10.66;91.64;101015.63;1634326;86;21024;-70
2022/10/06 03:56:31;;;;;;;5.58;3.10;;;;;;;10.67;91.78;101014.64;1633567;86;21028;-71
2022/10/06 03:59:10;;;;;;;7.87;3.42;;;;;;;10.68;91.75;101014.95;1634388;86;21569;-70
2022/10/06 04:01:41;;;;;;;7.72;4.95;;;;;;;10.67;91.72;101010.64;1635854;87;21002;-69
2022/10/06 04:04:11;;;;;;;3.40;3.10;;;;;;;10.67;91.80;101019.97;1615800;87;21645;-70
2022/10/06 04:06:43;;;;;;;4.33;3.90;;;;;;;10.65;91.91;101009.47;1626301;87;21025;-71
2022/10/06 04:09:13;;;;;;;5.53;3.07;;;;;;;10.65;91.94;101013.47;1632119;87;21116;-71
2022/10/06 04:11:42;;;;;;;13.40;4.00;;;;;;;10.65;91.92;101018.80;1631187;87;21055;-70
2022/10/06 04:14:12;;;;;;;5.87;3.63;;;;;;;10.64;91.98;101021.64;1628153;87;21052;-72
2022/10/06 04:16:45;;;;;;;4.03;3.37;;;;;;;10.63;92.06;101024.81;1630589;87;21044;-71
2022/10/06 04:19:17;;;;;;;6.67;3.23;;;;;;;10.66;92.23;101029.81;1604203;88;21161;-71
2022/10/06 04:21:46;;;;;;;6.23;3.13;;;;;;;10.69;92.16;101025.45;1631993;86;20989;-70
2022/10/06 04:24:17;;;;;;;3.57;2.97;;;;;;;10.73;92.05;101023.27;1632150;87;21023;-73
2022/10/06 04:26:45;;;;;;;4.70;3.97;;;;;;;10.79;91.84;101027.08;1631908;88;20984;-71
2022/10/06 04:29:13;;;;;;;7.60;2.17;;;;;;;10.83;91.55;101025.73;1631565;87;20993;-71
2022/10/06 04:31:41;;;;;;;8.10;3.57;;;;;;;10.89;91.28;101031.22;1632200;87;21553;-71
2022/10/06 04:34:12;;;;;;;5.12;2.90;;;;;;;10.94;90.94;101037.86;1632410;87;21642;-72
2022/10/06 04:36:41;;;;;;;3.57;3.10;;;;;;;10.97;90.58;101035.67;1634803;85;21506;-70
2022/10/06 04:39:11;;;;;;;6.45;3.33;;;;;;;10.99;90.39;101039.00;1628747;88;20998;-71
2022/10/06 04:41:41;;;;;;;2.92;2.62;;;;;;;11.05;90.38;101035.62;1632074;87;20971;-71
2022/10/06 04:44:09;;;;;;;6.85;2.90;;;;;;;11.12;90.17;101042.95;1631726;86;20948;-73
2022/10/06 04:46:36;;;;;;;5.72;3.45;;;;;;;11.18;89.75;101040.92;1632032;88;21037;-71
2022/10/06 04:49:03;;;;;;;4.85;2.60;;;;;;;11.23;89.49;101035.89;1609578;87;21462;-79
2022/10/06 04:51:31;;;;;;;9.68;2.83;;;;;;;11.29;89.42;101036.00;1632014;86;21100;-70
2022/10/06 04:54:02;;;;;;;5.17;2.55;;;;;;;11.56;89.93;101035.16;1631933;86;20957;-72
2022/10/06 04:56:31;;;;;;;4.17;3.40;;;;;;;12.20;89.53;101031.33;1627097;86;20973;-71
2022/10/06 04:58:59;;;;;;;2.35;1.95;;;;;;;13.17;87.02;101033.88;1632489;87;21065;-71
2022/10/06 05:01:35;;;;;;;4.53;2.22;;;;;;;14.25;81.84;101033.87;1641137;86;21159;-70
2022/10/06 05:04:07;;;;;;;3.05;2.05;;;;;;;15.26;76.25;101025.33;1645386;86;21048;-70
2022/10/06 05:06:40;;;;;;;3.17;2.00;;;;;;;16.22;70.44;101026.03;1594091;89;21129;-70
2022/10/06 05:09:14;;;;;;;4.08;1.87;;;;;;;17.06;65.76;101021.69;1600918;87;20982;-70
2022/10/06 05:11:53;;;;;;;5.20;1.80;;;;;;;17.73;62.18;101025.34;1622091;87;21255;-72
2022/10/06 05:14:20;;;;;;;5.40;2.20;;;;;;;18.33;60.12;101020.28;1645551;86;21502;-70
2022/10/06 05:16:48;;;;;;;2.60;2.05;;;;;;;18.77;57.84;101018.86;1621350;87;21032;-71
2022/10/06 05:21:17;;;;;;;6.85;1.98;;;;;;;19.51;54.14;101021.43;1753811;78;23145;-72
2022/10/06 05:23:44;;;;;;;1.75;1.65;;;;;;;19.86;52.68;101024.24;1664891;84;21089;-79
2022/10/06 05:26:16;;;;;;;2.85;1.62;;;;;;;20.32;50.98;101019.89;1643245;85;21295;-71
2022/10/06 05:28:43;;;;;;;5.97;2.52;;;;;;;20.70;49.43;101022.66;1673420;84;21096;-71
2022/10/06 05:31:23;;;;;;;5.35;1.75;;;;;;;21.12;48.72;101024.30;1658215;84;21052;-72
2022/10/06 05:33:49;;;;;;;6.25;2.30;;;;;;;21.28;47.28;101026.20;1665510;84;21041;-73
2022/10/06 05:36:19;;;;;;;2.62;1.35;;;;;;;21.09;46.64;101022.87;1676732;83;21092;-79
2022/10/06 05:38:47;;;;;;;4.62;1.90;;;;;;;20.88;47.73;101024.90;1702569;83;20989;-77
2022/10/06 05:41:20;;;;;;;3.27;1.60;;;;;;;20.56;46.93;101030.70;1726518;82;20985;-80
2022/10/06 05:43:47;;;;;;;3.08;1.90;;;;;;;19.80;47.88;101031.41;1727443;83;21010;-75
2022/10/06 05:46:24;;;;;;;5.30;2.02;;;;;;;18.91;49.87;101031.20;1716166;82;21069;-77
2022/10/06 05:48:55;;;;;;;4.03;2.02;;;;;;;18.12;51.94;101040.41;1714052;82;21092;-78
2022/10/06 05:51:27;;;;;;;5.53;3.30;;;;;;;17.39;54.05;101043.60;1688810;83;21494;-76
2022/10/06 05:53:54;;;;;;;4.72;3.72;;;;;;;16.78;56.29;101046.20;1667131;82;21431;-77
2022/10/06 05:56:24;;;;;;;9.15;3.42;;;;;;;16.33;58.06;101046.92;1663208;81;21094;-77
2022/10/06 05:58:54;;;;;;;5.00;2.55;;;;;;;16.28;59.51;101048.09;1734357;81;21558;-77
2022/10/06 06:01:27;;;;;;;3.92;2.33;;;;;;;16.73;59.51;101042.82;1691340;81;21160;-78
2022/10/06 06:04:01;;;;;;;3.27;2.62;;;;;;;17.46;57.48;101044.36;1661456;85;21012;-75
2022/10/06 06:06:39;;;;;;;10.97;2.53;;;;;;;18.17;54.77;101044.59;1652633;85;21041;-77
2022/10/06 06:09:18;;;;;;;8.48;2.62;;;;;;;18.89;52.42;101037.32;1664643;84;21134;-72
2022/10/06 06:11:49;;;;;;;5.22;1.95;;;;;;;19.57;51.20;101045.68;1681132;85;21093;-69
2022/10/06 06:17:06;;;;;;;3.40;2.62;;;;;;;19.48;49.11;101043.00;1672900;83;21063;-69
2022/10/06 06:19:33;;;;;;;6.12;3.40;;;;;;;18.78;50.61;101042.95;1706188;83;21034;-71
2022/10/06 06:21:59;;;;;;;;;;;;;;;18.12;51.95;101053.89;1703085;83;21145;-69
2022/10/06 06:24:26;;;;;;;8.33;4.53;;;;;;;17.60;53.54;101056.73;1706453;82;20122;-69
2022/10/06 06:26:54;;;;;;;7.37;3.85;;;;;;;17.15;54.60;101055.42;1727141;82;21005;-70
2022/10/06 06:29:22;;;;;;;7.37;3.12;;;;;;;16.77;56.30;101050.77;1726689;82;21560;-69
2022/10/06 06:31:49;;;;;;;10.72;4.10;;;;;;;16.54;56.87;101052.08;1728401;82;21065;-69
2022/10/06 06:34:17;;;;;;;7.47;3.42;;;;;;;16.34;57.85;101052.09;1720175;82;21478;-68
2022/10/06 06:36:46;;;;;;;8.83;3.60;;;;;;;16.19;58.52;101054.71;1663895;85;21511;-69
2022/10/06 06:39:14;;;;;;;7.08;3.67;;;;;;;16.06;58.73;101053.66;1690459;83;21097;-70
2022/10/06 06:41:45;;;;;;;9.95;4.17;;;;;;;15.99;59.11;101054.70;1677739;84;22066;-69
2022/10/06 06:44:19;;;;;;;6.70;2.55;;;;;;;15.88;59.19;101052.11;1672350;84;21485;-69
2022/10/06 06:46:53;;;;;;;5.22;2.67;;;;;;;15.74;59.83;101053.44;1676606;85;21040;-69
2022/10/06 06:49:20;;;;;;;5.47;2.47;;;;;;;15.63;60.35;101047.30;1676167;84;21078;-67
2022/10/06 06:51:48;;;;;;;12.05;2.90;;;;;;;15.53;60.89;101053.59;1674101;84;21066;-72
2022/10/06 06:54:17;;;;;;;5.97;2.95;;;;;;;15.46;61.15;101050.06;1676205;84;21009;-69
2022/10/06 06:56:47;;;;;;;7.22;2.83;;;;;;;15.43;61.54;101045.93;1676542;84;21098;-69
2022/10/06 06:59:16;;;;;;;10.13;3.02;;;;;;;15.44;61.73;101042.72;1677771;84;21109;-69
2022/10/06 07:01:47;;;;;;;4.12;2.10;;;;;;;15.44;62.07;101048.09;1674737;84;21033;-70
2022/10/06 07:04:16;;;;;;;6.58;2.83;;;;;;;15.48;62.05;101052.02;1675409;85;21026;-69
2022/10/06 07:06:57;;;;;;;6.10;2.08;;;;;;;15.49;61.58;101052.35;1669408;85;20959;-70
2022/10/06 07:09:26;;;;;;;5.95;2.37;;;;;;;15.48;61.92;101045.31;1660023;85;21558;-71
2022/10/06 07:11:56;;;;;;;4.25;2.27;;;;;;;15.48;62.30;101042.12;1647096;87;21074;-71
2022/10/06 07:14:23;;;;;;;2.33;1.80;;;;;;;15.50;62.09;101042.75;1672886;85;21081;-73
2022/10/06 07:25:22;;;;;;;5.08;1.87;;;;;;;15.53;62.07;101049.04;1660275;85;21094;-68
2022/10/06 07:27:49;;;;;;;3.98;2.30;;;;;;;15.55;62.09;101052.34;1653969;85;21082;-69
2022/10/06 07:30:25;;;;;;;3.52;2.12;;;;;;;15.58;61.91;101049.78;1650940;85;21049;-69
2022/10/06 07:32:54;;;;;;;4.72;1.85;;;;;;;15.60;61.74;101049.59;1660908;85;21093;-71
2022/10/06 07:35:23;;;;;;;2.85;1.60;;;;;;;15.63;62.07;101045.95;1661890;85;20957;-69
2022/10/06 07:37:56;;;;;;;4.75;2.87;;;;;;;15.67;62.27;101044.53;1638698;86;21014;-70
2022/10/06 07:40:23;;;;;;;5.92;4.25;;;;;;;15.72;62.29;101042.04;1640113;86;21174;-69
2022/10/06 07:42:53;;;;;;;6.70;3.33;;;;;;;15.75;62.20;101036.30;1659701;85;21535;-71
2022/10/06 07:45:43;;;;;;;7.53;3.45;;;;;;;15.82;62.39;101046.22;1655892;85;21134;-69
2022/10/06 07:48:19;;;;;;;6.65;3.22;;;;;;;15.85;62.62;101041.78;1655259;85;21194;-71
2022/10/06 07:50:50;;;;;;;5.92;2.87;;;;;;;15.91;62.84;101042.30;1683994;83;21034;-71
2022/10/06 07:53:19;;;;;;;7.97;3.52;;;;;;;15.98;62.16;101035.59;1685884;83;21049;-69
2022/10/06 07:55:48;;;;;;;7.72;4.00;;;;;;;16.05;61.84;101035.89;1682051;83;21542;-70
2022/10/06 07:58:22;;;;;;;11.75;4.67;;;;;;;16.07;61.22;101034.35;1691010;83;20982;-71
2022/10/06 08:00:54;;;;;;;8.55;4.25;;;;;;;16.12;61.33;101031.84;1695911;83;21066;-70
2022/10/06 08:03:18;;;;;;;14.78;5.00;;;;;;;16.20;61.17;101034.83;1688439;85;21014;-73
2022/10/06 08:05:47;;;;;;;13.83;5.50;;;;;;;16.24;60.61;101022.12;1685865;85;21036;-70
2022/10/06 08:08:14;;;;;;;12.68;5.05;;;;;;;16.28;60.81;101025.22;1684207;84;21033;-72
2022/10/06 08:10:48;;;;;;;11.97;4.42;;;;;;;16.28;60.81;101025.22;1683762;85;21193;-69
2022/10/06 08:13:15;;;;;;;15.43;6.12;;;;;;;16.33;61.41;101030.78;1687387;85;21145;-70
2022/10/06 08:15:43;;;;;;;9.40;4.33;;;;;;;16.39;60.49;101033.15;1689794;85;21014;-71
2022/10/06 08:18:09;;;;;;;14.25;4.58;;;;;;;16.43;60.51;101020.43;1682773;85;21050;-71
2022/10/06 08:20:36;;;;;;;8.25;4.62;;;;;;;16.50;60.39;101022.59;1680406;83;21162;-71
2022/10/06 08:23:11;;;;;;;8.33;4.65;;;;;;;16.57;60.48;101015.02;1687283;85;21057;-70
2022/10/06 08:25:30;;;;;;;6.55;2.77;;;;;;;16.57;60.48;101015.02;1687213;85;21034;-70
2022/10/06 08:27:56;;;;;;;8.03;3.60;;;;;;;16.59;60.09;101017.78;1690231;85;21081;-70
2022/10/06 08:30:26;;;;;;;7.83;3.45;;;;;;;16.63;60.41;101017.70;1687214;84;20994;-72
2022/10/06 08:32:50;;;;;;;12.82;4.20;;;;;;;16.69;60.14;101011.98;1687709;85;21018;-69
2022/10/06 08:35:16;;;;;;;4.47;3.22;;;;;;;16.74;60.16;101014.84;1687956;84;21215;-71
2022/10/06 08:37:42;;;;;;;4.87;2.90;;;;;;;16.78;60.48;101008.52;1690757;83;21033;-70
2022/10/06 08:40:13;;;;;;;6.55;2.72;;;;;;;16.87;60.01;101008.09;1684841;85;21038;-70
2022/10/06 08:42:51;;;;;;;5.95;3.30;;;;;;;16.87;60.01;101008.09;1690789;85;21042;-71
2022/10/06 08:45:34;;;;;;;4.05;2.60;;;;;;;16.95;59.46;101006.20;1688740;83;21034;-72
2022/10/06 08:48:06;;;;;;;4.90;1.77;;;;;;;16.97;59.28;101000.08;1681105;84;21105;-69
2022/10/06 08:50:40;;;;;;;6.45;2.55;;;;;;;17.01;59.86;101003.98;1689314;85;21070;-71
2022/10/06 08:53:39;;;;;;;5.28;2.20;;;;;;;17.03;59.97;100996.55;1690698;83;22193;-70
2022/10/06 08:56:19;;;;;;;4.90;2.95;;;;;;;17.07;60.10;100997.77;1686784;83;21114;-70
2022/10/06 08:58:57;;;;;;;6.92;2.95;;;;;;;17.13;59.47;100999.06;1679891;85;21063;-71
2022/10/06 09:01:28;;;;;;;4.40;2.92;;;;;;;17.26;59.13;100998.70;1690870;83;21977;-70
2022/10/06 09:04:02;;;;;;;9.88;2.37;;;;;;;17.26;59.13;100998.70;1696470;83;21066;-72
2022/10/06 09:07:02;;;;;;;2.62;2.25;;;;;;;17.32;58.73;100998.64;1699190;83;21057;-70
2022/10/06 09:10:16;;;;;;;4.12;2.77;;;;;;;17.35;58.38;100997.40;1689198;83;21073;-72
2022/10/06 09:12:55;;;;;;;3.37;1.57;;;;;;;17.34;59.30;100989.00;1674706;84;21549;-71
2022/10/06 09:15:51;;;;;;;5.08;2.10;;;;;;;17.42;58.59;100991.95;1694202;83;21029;-72
2022/10/06 09:18:30;;;;;;;3.17;1.77;;;;;;;17.51;57.67;100998.20;1695052;83;21012;-71
2022/10/06 09:21:03;;;;;;;2.75;1.75;;;;;;;17.60;57.32;100997.42;1680787;84;21491;-71
2022/10/06 09:23:47;;;;;;;2.90;1.98;;;;;;;17.68;57.20;100995.80;1652227;86;21050;-72
2022/10/06 09:26:21;;;;;;;2.35;2.00;;;;;;;17.77;56.70;100989.62;1691911;83;21339;-70
2022/10/06 09:28:49;;;;;;;2.62;1.95;;;;;;;17.85;56.69;101004.73;1690651;85;21194;-72
2022/10/06 09:31:27;;;;;;;1.82;1.52;;;;;;;17.88;56.74;100994.86;1667220;84;21155;-70
2022/10/06 09:34:16;;;;;;;2.10;1.42;;;;;;;17.93;56.49;100999.05;1690416;85;21599;-70
2022/10/06 09:36:59;;;;;;;2.90;1.30;;;;;;;18.01;56.27;100994.73;1691889;83;21190;-72
2022/10/06 09:39:35;;;;;;;1.90;1.35;;;;;;;18.09;55.52;100986.35;1698288;83;21074;-71
2022/10/06 09:42:11;;;;;;;5.35;1.50;;;;;;;18.17;55.23;100993.86;1695228;83;21038;-71
2022/10/06 09:45:14;;;;;;;6.87;1.70;;;;;;;18.23;55.02;100991.61;1690019;83;21077;-70
2022/10/06 09:47:45;;;;;;;2.02;1.72;;;;;;;18.28;55.07;100987.73;1674308;83;21128;-73
2022/10/06 09:50:23;;;;;;;6.83;2.30;;;;;;;18.33;53.73;100988.39;1686277;84;21526;-72
2022/10/06 09:53:04;;;;;;;;;;;;;;;18.37;54.32;100984.22;1692116;83;22205;-72
2022/10/06 09:55:41;;;;;;;7.10;2.77;;;;;;;18.42;53.82;100985.20;1664038;85;20441;-74
2022/10/06 09:58:28;;;;;;;3.00;1.82;;;;;;;18.45;53.46;100987.43;1685421;83;21081;-71
2022/10/06 10:01:00;;;;;;;4.33;2.17;;;;;;;18.53;53.29;100994.41;1684800;85;21001;-70
2022/10/06 10:03:50;;;;;;;5.78;2.98;;;;;;;18.61;53.53;100990.57;1689677;84;21563;-71
2022/10/06 10:06:28;;;;;;;3.77;2.05;;;;;;;18.68;53.49;100992.67;1684998;84;21026;-69
2022/10/06 10:09:20;;;;;;;3.00;1.60;;;;;;;18.72;52.88;100993.87;1686754;85;21601;-70
2022/10/06 10:12:23;;;;;;;3.37;2.22;;;;;;;18.76;52.57;100992.39;1686283;85;21070;-71
2022/10/06 10:14:57;;;;;;;3.17;1.82;;;;;;;18.81;52.62;100985.79;1686060;85;21018;-70
2022/10/06 10:17:32;;;;;;;2.62;1.60;;;;;;;18.85;52.38;100988.86;1686282;85;21078;-70
2022/10/06 10:20:01;;;;;;;7.50;1.57;;;;;;;18.87;52.00;100980.00;1685635;83;20987;-70
2022/10/06 10:22:39;;;;;;;5.40;2.20;;;;;;;18.90;51.20;100980.09;1687687;85;21058;-75
2022/10/06 10:25:46;;;;;;;2.75;2.35;;;;;;;18.89;51.50;100981.95;1688294;84;21093;-73
2022/10/06 10:28:56;;;;;;;3.20;1.90;;;;;;;18.90;51.25;100982.26;1679485;85;21584;-71
2022/10/06 10:31:48;;;;;;;3.52;1.40;;;;;;;18.88;51.04;100973.56;1693619;83;21294;-75
2022/10/06 10:34:32;;;;;;;1.30;0.90;;;;;;;18.92;51.19;100972.58;1685249;83;21613;-78
2022/10/06 10:37:07;;;;;;;2.90;1.27;;;;;;;18.95;51.21;100970.25;1682551;85;21156;-74
2022/10/06 10:39:38;;;;;;;1.95;1.00;;;;;;;18.70;51.22;100912.27;1691203;85;21053;-76
2022/10/06 10:42:13;;;;;;;4.83;0.90;;;;;;;19.06;50.85;100959.17;1691485;85;21530;-81
2022/10/06 10:44:45;;;;;;;;;;;;;;;19.11;50.42;100961.20;1681649;85;21010;-72
2022/10/06 10:47:34;;;;;;;2.40;1.30;;;;;;;19.12;49.99;100962.84;1682834;83;20113;-71
2022/10/06 10:50:09;;;;;;;4.50;1.15;;;;;;;19.10;49.71;100963.09;1696199;84;20996;-70
2022/10/06 10:52:40;;;;;;;0.90;0.83;;;;;;;19.10;49.67;100969.84;1691002;82;20998;-72
2022/10/06 10:55:30;;;;;;;1.77;1.00;;;;;;;19.10;49.53;100952.79;1685005;83;21085;-71
2022/10/06 10:58:02;;;;;;;1.67;1.02;;;;;;;19.09;49.79;100953.32;1677563;85;21002;-73
2022/10/06 11:00:33;;;;;;;3.92;1.02;;;;;;;19.10;49.65;100956.34;1668785;85;21165;-73
2022/10/06 11:02:58;;;;;;;3.25;2.27;;;;;;;19.14;49.93;100957.52;1684976;83;21046;-71
2022/10/06 11:05:52;;;;;;;2.87;1.32;;;;;;;19.17;49.73;100958.39;1640929;86;21022;-74
2022/10/06 11:08:44;;;;;;;1.87;1.35;;;;;;;19.20;49.91;100959.30;1621997;86;21083;-72
2022/10/06 11:11:26;;;;;;;1.55;1.30;;;;;;;19.20;49.28;100953.89;1662657;85;21112;-72
2022/10/06 11:13:55;;;;;;;4.00;0.95;;;;;;;19.18;49.84;100949.24;1650660;86;21015;-72
2022/10/06 11:16:51;;;;;;;3.08;1.22;;;;;;;19.19;49.02;100948.70;1654771;85;21006;-77
2022/10/06 11:19:35;;;;;;;2.98;0.93;;;;;;;19.17;49.51;100952.98;1652477;86;21158;-72
2022/10/06 11:22:16;;;;;;;7.10;2.02;;;;;;;19.14;49.44;100946.71;1658825;86;21716;-73
2022/10/06 11:24:54;;;;;;;3.05;2.10;;;;;;;19.14;49.63;100946.71;1662908;85;21590;-73
2022/10/06 11:27:32;;;;;;;4.08;0.93;;;;;;;19.17;50.24;100939.47;1663028;85;21023;-74
2022/10/06 11:30:25;;;;;;;1.17;0.88;;;;;;;19.20;50.17;100938.20;1654006;85;21050;-71
2022/10/06 11:33:13;;;;;;;3.00;0.90;;;;;;;19.25;49.93;100935.11;1650637;85;21023;-70
2022/10/06 11:35:44;;;;;;;2.47;0.75;;;;;;;19.29;49.46;100927.37;1654426;85;21118;-71
2022/10/06 11:38:30;;;;;;;2.35;1.37;;;;;;;19.30;49.16;100919.53;1674456;85;21490;-73
2022/10/06 11:41:07;;;;;;;1.75;1.10;;;;;;;19.29;48.66;100935.98;1678655;85;21111;-71
2022/10/06 11:43:51;;;;;;;2.87;1.27;;;;;;;19.25;48.82;100933.76;1653864;86;21595;-71
2022/10/06 11:46:32;;;;;;;3.20;1.20;;;;;;;19.23;48.95;100936.38;1648427;86;21070;-73
2022/10/06 11:49:31;;;;;;;2.15;1.45;;;;;;;19.20;49.52;100934.16;1658763;86;21571;-71
2022/10/06 11:52:14;;;;;;;2.60;2.12;;;;;;;19.21;49.62;100937.98;1648822;86;21108;-70
2022/10/06 11:54:56;;;;;;;1.67;1.52;;;;;;;19.25;49.82;100932.94;1652464;86;21094;-72
2022/10/06 11:57:28;;;;;;;2.85;1.57;;;;;;;19.29;49.83;100926.02;1653421;85;21078;-72
2022/10/06 12:00:05;;;;;;;3.08;1.05;;;;;;;19.36;49.52;100929.95;1650929;86;21062;-71
2022/10/06 12:02:38;;;;;;;8.13;2.40;;;;;;;19.42;49.56;100931.71;1634042;86;21547;-71
2022/10/06 12:05:19;;;;;;;1.82;1.37;;;;;;;19.49;49.28;100931.62;1653198;85;21105;-72